Flight Track Log - Related Links

Times and Time Zones

All times are in EDT time to prevent confusion due to time zone crossing. See the EJA727 flight status page for this flight to view local times or setup timezone preferences in your user account.

Time Position Orientation Groundspeed Altitude Reporting Facility
EDT Latitude Longitude Course Direction KTS MPH feet Rate Location/Type
Wed 08:02:31 AM 33.8000 -84.5667 360° North 190 219 3,000  Level Atlanta TRACON
Wed 08:03:26 AM 33.8500 -84.5667 360° North 221 254 4,800 2,870 Climbing Atlanta TRACON
Wed 08:04:26 AM 33.9000 -84.5167 40° Northeast 233 268 8,500 3,350 Climbing Atlanta TRACON
Wed 08:05:26 AM 33.9167 -84.4500 73° East 248 285 11,500 2,089 Climbing Atlanta TRACON
Wed 08:06:18 AM 33.9378 -84.3669 73° East 290 334 12,400 1,339 Climbing Atlanta Center
Wed 08:07:18 AM 33.9797 -84.2517 66° East 342 394 14,000 800 Climbing Atlanta Center
Wed 08:08:18 AM 34.0175 -84.1342 69° East 368 423 14,000 350 Level Atlanta Center
Wed 08:09:18 AM 33.9800 -84.0136 111° Southeast 351 404 14,700 1,400 Climbing Atlanta Center
Wed 08:10:18 AM 33.9403 -83.9011 113° Southeast 376 433 16,800 2,000 Climbing Atlanta Center
Wed 08:11:18 AM 33.9317 -83.7683 94° East 383 441 18,700 1,950 Climbing Atlanta Center
Wed 08:12:18 AM 33.9606 -83.6356 75° East 399 459 20,700 2,000 Climbing Atlanta Center
Wed 08:13:18 AM 34.0417 -83.5300 47° Northeast 407 468 22,700 2,000 Climbing Atlanta Center
Wed 08:14:18 AM 34.1119 -83.4167 53° Northeast 420 483 24,700 2,050 Climbing Atlanta Center
Wed 08:15:18 AM 34.1656 -83.2856 64° Northeast 420 483 26,800 2,050 Climbing Atlanta Center
Wed 08:16:18 AM 34.2211 -83.1594 62° Northeast 420 483 28,800 1,850 Climbing Atlanta Center
Wed 08:17:18 AM 34.2742 -83.0258 64° Northeast 425 489 30,500 1,350 Climbing Atlanta Center
Wed 08:18:18 AM 34.3314 -82.8767 65° Northeast 431 496 31,500 1,050 Climbing Atlanta Center
Wed 08:19:18 AM 34.3864 -82.7425 64° Northeast 442 509 32,600 1,050 Climbing Atlanta Center
Wed 08:20:18 AM 34.4292 -82.6336 65° Northeast 442 509 33,600 1,100 Climbing Atlanta Center
Wed 08:21:18 AM 34.4919 -82.4839 63° Northeast 442 509 34,800 700 Climbing Atlanta Center
Wed 08:22:18 AM 34.5464 -82.3467 64° Northeast 442 509 35,000 100 Climbing Atlanta Center
Wed 08:23:18 AM 34.6028 -82.2017 65° Northeast 453 521 35,000  Level Atlanta Center
Wed 08:24:18 AM 34.6569 -82.0589 65° Northeast 458 527 35,000  Level Atlanta Center
Wed 08:25:18 AM 34.7150 -81.9186 63° Northeast 463 533 35,000  Level Atlanta Center
Wed 08:26:18 AM 34.7708 -81.7706 65° Northeast 471 542 35,000  Level Atlanta Center
Wed 08:27:18 AM 34.8286 -81.6172 65° Northeast 476 548 35,000  Level Atlanta Center
Wed 08:28:18 AM 34.8897 -81.4533 66° East 476 548 35,000  Level Atlanta Center
Wed 08:29:18 AM 34.9411 -81.3150 66° East 488 562 35,000  Level Atlanta Center
Wed 08:30:18 AM 35.0003 -81.1658 64° Northeast 488 562 35,000  Level Atlanta Center
Wed 08:31:18 AM 35.0592 -81.0117 65° Northeast 488 562 35,000  Level Atlanta Center
Wed 08:32:18 AM 35.1158 -80.8597 65° Northeast 488 562 35,000  Level Atlanta Center
Wed 08:33:18 AM 35.1722 -80.7050 66° East 494 568 35,000  Level Atlanta Center
Wed 08:34:18 AM 35.2306 -80.5503 65° Northeast 494 568 35,000  Level Atlanta Center
Wed 08:36:17 AM 35.3464 -80.2292 66° East 491 565 35,000  Level Washington Center
Wed 08:37:18 AM 35.4042 -80.0769 65° Northeast 491 565 35,000  Level Washington Center
Wed 08:38:18 AM 35.4572 -79.9422 64° Northeast 491 565 35,000  Level Washington Center
Wed 08:39:16 AM 35.5128 -79.7869 66° East 491 565 35,000  Level Washington Center
Wed 08:40:17 AM 35.5769 -79.6194 65° Northeast 491 565 35,000  Level Washington Center
Wed 08:41:18 AM 35.6256 -79.4786 67° East 496 571 35,000  Level Washington Center
Wed 08:42:19 AM 35.6806 -79.3281 66° East 486 559 35,000  Level Washington Center
Wed 08:43:17 AM 35.7353 -79.1769 66° East 486 559 35,000  Level Washington Center
Wed 08:44:19 AM 35.7919 -79.0183 66° East 491 565 35,000 100 Level Washington Center
Wed 08:45:17 AM 35.8464 -78.8642 66° East 491 565 35,200 508 Climbing Washington Center
Wed 08:46:17 AM 35.8842 -78.7017 74° East 491 565 36,000 1,000 Climbing Washington Center
Wed 08:47:17 AM 35.8986 -78.5433 84° East 474 545 37,200 1,140 Climbing Washington Center
Wed 08:48:18 AM 35.9314 -78.3881 75° East 469 540 38,300 908 Climbing Washington Center
Wed 08:49:16 AM 35.9931 -78.2517 61° Northeast 449 517 39,000 353 Climbing Washington Center
Wed 08:50:17 AM 36.0567 -78.1072 61° Northeast 455 524 39,000  Level Washington Center
Wed 08:51:17 AM 36.1222 -77.9653 60° Northeast 460 529 39,000  Level Washington Center
Wed 08:52:18 AM 36.1833 -77.8231 62° Northeast 466 536 39,000  Level Washington Center
Wed 08:53:18 AM 36.2483 -77.6808 60° Northeast 472 543 39,000  Level Washington Center
Wed 08:54:19 AM 36.3114 -77.5433 60° Northeast 467 537 39,000  Level Washington Center
Wed 08:55:17 AM 36.3742 -77.3847 64° Northeast 462 532 39,000  Level Washington Center
Wed 08:56:19 AM 36.4389 -77.2444 60° Northeast 457 526 39,000  Level Washington Center
Wed 08:57:17 AM 36.4969 -77.1061 62° Northeast 457 526 39,000  Level Washington Center
Wed 08:58:18 AM 36.5592 -76.9625 62° Northeast 457 526 39,000  Level Washington Center
Wed 08:59:18 AM 36.6192 -76.8236 62° Northeast 457 526 39,000  Level Washington Center
Wed 09:00:17 AM 36.6789 -76.7003 59° Northeast 457 526 39,000  Level Washington Center
Wed 09:01:17 AM 36.7469 -76.5381 62° Northeast 463 533 39,000  Level Washington Center
Wed 09:02:18 AM 36.8064 -76.3986 62° Northeast 463 533 39,000  Level Washington Center
Wed 09:03:19 AM 36.8697 -76.2567 61° Northeast 458 527 39,000  Level Washington Center
Wed 09:04:19 AM 36.9578 -76.1636 40° Northeast 449 517 39,000  Level Washington Center
Wed 09:05:16 AM 37.0792 -76.0969 24° Northeast 449 517 39,000  Level Washington Center
Wed 09:06:17 AM 37.1922 -76.0219 28° Northeast 449 517 39,000  Level Washington Center
Wed 09:07:18 AM 37.3069 -75.9522 26° Northeast 449 517 39,000 -49 Level Washington Center
Wed 09:08:19 AM 37.4219 -75.8794 27° Northeast 454 522 38,900  Descending Washington Center
Wed 09:09:17 AM 37.5389 -75.8067 26° Northeast 454 522 39,000 50 Climbing Washington Center
Wed 09:10:18 AM 37.6558 -75.7333 26° Northeast 454 522 39,000 -50 Level Washington Center
Wed 09:11:18 AM 37.7728 -75.6600 26° Northeast 454 522 38,900  Descending Washington Center
Wed 09:12:17 AM 37.8894 -75.5839 27° Northeast 459 528 39,000 50 Climbing Washington Center
Wed 09:13:18 AM 38.0042 -75.5153 25° Northeast 459 528 39,000  Level Washington Center
Wed 09:14:20 AM 38.1189 -75.4361 28° Northeast 459 528 39,000  Level Washington Center
Wed 09:15:17 AM 38.2250 -75.3458 34° Northeast 459 528 39,000  Level Washington Center
Wed 09:16:18 AM 38.3372 -75.2344 38° Northeast 459 528 39,000  Level Washington Center
Wed 09:17:19 AM 38.4206 -75.1572 36° Northeast 459 528 39,000 -443 Level Washington Center
Wed 09:18:20 AM 38.5450 -75.0608 31° Northeast 466 536 38,100 -1,017 Descending Washington Center
Wed 09:19:17 AM 38.6489 -74.9669 35° Northeast 466 536 37,000 -559 Descending Washington Center
Wed 09:20:18 AM 38.7567 -74.8675 36° Northeast 466 536 37,000 -446 Level Washington Center
Wed 09:21:18 AM 38.8542 -74.7628 40° Northeast 466 536 36,100 -1,537 Descending Washington Center
Wed 09:22:19 AM 38.9597 -74.6653 36° Northeast 458 527 33,900 -2,368 Descending Washington Center
Wed 09:24:28 AM 39.1972 -74.4517 35° Northeast 465 535 28,600 -2,508 Descending New York Center
Wed 09:25:28 AM 39.3111 -74.3475 35° Northeast 481 554 26,000 -2,550 Descending New York Center
Wed 09:26:28 AM 39.4225 -74.2483 35° Northeast 486 559 23,500 -2,430 Descending New York Center
Wed 09:27:29 AM 39.5217 -74.1350 41° Northeast 486 559 21,100 -1,462 Descending New York Center
Wed 09:28:27 AM 39.6086 -74.0097 48° Northeast 464 534 20,600 -1,252 Descending New York Center
Wed 09:30:55 AM 39.8072 -73.6986 50° Northeast 429 494 16,800 -1,500 Descending Boston Center
Wed 09:31:55 AM 39.8814 -73.5783 51° Northeast 422 486 15,400 -1,400 Descending Boston Center
Wed 09:32:55 AM 39.9636 -73.4794 43° Northeast 417 480 14,000 -1,300 Descending Boston Center
Wed 09:33:55 AM 40.0375 -73.3886 43° Northeast 383 441 12,800 -1,100 Descending Boston Center
Wed 09:34:55 AM 40.1028 -73.3081 43° Northeast 351 404 11,800 -950 Descending Boston Center
Wed 09:35:55 AM 40.1572 -73.2464 41° Northeast 334 384 10,900 -1,000 Descending Boston Center
Wed 09:37:07 AM 40.2372 -73.1494 43° Northeast 320 368 9,600 -864 Descending Boston Center
Wed 09:38:07 AM 40.3169 -73.0525 43° Northeast 320 368 9,000 -907 Descending Boston Center
Wed 09:40:32 AM 40.5000 -72.9500 23° Northeast 292 336 6,500 -1,336 Descending New York TRACON
Wed 09:41:38 AM 40.5833 -72.9333 North 262 302 4,300 -1,667 Descending New York TRACON
Wed 09:42:38 AM 40.6500 -72.9667 339° North 243 280 3,000 -1,150 Descending New York TRACON
Wed 09:43:38 AM 40.7167 -72.9833 349° North 220 253 2,000 -800 Descending New York TRACON
Wed 09:44:38 AM 40.7667 -73.0167 333° Northwest 197 227 1,400 -350 Descending New York TRACON
Wed 09:45:38 AM 40.8167 -73.0333 346° North 183 211 1,300 -600 Descending New York TRACON
Wed 09:46:38 AM 40.8000 -73.0833 246° West 146 168 200 -1,100 Descending New York TRACON

Login

Don't have an account? Register now (free) for customized features, flight alerts, and more!